createdAt,value
2022-07-25T00:01:50.159Z,98491.72
2022-07-25T00:04:18.850Z,98479.84
2022-07-25T00:06:46.001Z,98485.41
2022-07-25T00:09:13.571Z,98480.66
2022-07-25T00:11:40.706Z,98483.84
2022-07-25T00:14:08.361Z,98471.19
2022-07-25T00:16:35.662Z,98469.97
2022-07-25T00:19:02.646Z,98469.97
2022-07-25T00:21:29.571Z,98465.22
2022-07-25T00:23:56.565Z,98470.41
2022-07-25T00:26:23.494Z,98462.09
2022-07-25T00:28:50.453Z,98461.69
2022-07-25T00:31:17.484Z,98458.13
2022-07-25T00:33:44.462Z,98455.38
2022-07-25T00:36:11.387Z,98455.75
2022-07-25T00:38:38.384Z,98451.78
2022-07-25T00:41:05.560Z,98449.41
2022-07-25T00:43:32.704Z,98456.94
2022-07-25T00:45:59.891Z,98454.19
2022-07-25T00:48:29.907Z,98454.16
2022-07-25T00:50:57.163Z,98456.94
2022-07-25T00:53:25.804Z,98453.78
2022-07-25T00:55:53.280Z,98447.44
2022-07-25T00:58:20.477Z,98439.16
2022-07-25T01:00:48.052Z,98437.56
2022-07-25T01:03:16.225Z,98433.94
2022-07-25T01:05:43.286Z,98433.56
2022-07-25T01:08:10.771Z,98432.75
2022-07-25T01:10:38.455Z,98432.34
2022-07-25T01:13:06.056Z,98427.22
2022-07-25T01:15:33.122Z,98428.78
2022-07-25T01:18:00.054Z,98428.41
2022-07-25T01:20:30.046Z,98430.38
2022-07-25T01:22:57.442Z,98422.06
2022-07-25T01:25:25.982Z,98428.72
2022-07-25T01:27:55.872Z,98424.03
2022-07-25T01:30:25.235Z,98420.06
2022-07-25T01:32:52.882Z,98420.44
2022-07-25T01:35:20.151Z,98416.91
2022-07-25T01:37:47.358Z,98414.09
2022-07-25T01:40:15.279Z,98417.69
2022-07-25T01:42:43.351Z,98409.78
2022-07-25T01:45:13.322Z,98416.13
2022-07-25T01:47:41.308Z,98410.97
2022-07-25T01:50:09.381Z,98416.91
2022-07-25T01:52:39.537Z,98415.31
2022-07-25T01:55:07.370Z,98405.81
2022-07-25T01:57:34.288Z,98403.06
2022-07-25T02:00:08.204Z,98392.38
2022-07-25T02:02:35.742Z,98391.22
2022-07-25T02:05:03.555Z,98397.53
2022-07-25T02:07:30.573Z,98392.81
2022-07-25T02:09:57.656Z,98388.06
2022-07-25T02:12:24.775Z,98381.75
2022-07-25T02:14:51.766Z,98381.75
2022-07-25T02:17:18.887Z,98385.28
2022-07-25T02:19:46.177Z,98386.47
2022-07-25T02:22:13.301Z,98383.72
2022-07-25T02:24:40.618Z,98397.13
2022-07-25T02:27:08.448Z,98390.00
2022-07-25T02:29:35.426Z,98384.81
2022-07-25T02:32:02.892Z,98383.66
2022-07-25T02:34:29.896Z,98384.84
2022-07-25T02:36:56.895Z,98385.66
2022-07-25T02:39:25.337Z,98393.97
2022-07-25T02:41:52.238Z,98386.88
2022-07-25T02:44:19.112Z,98385.28
2022-07-25T02:46:45.980Z,98388.06
2022-07-25T02:49:13.879Z,98394.03
2022-07-25T02:54:11.113Z,98377.41
2022-07-25T02:56:38.466Z,98382.56
2022-07-25T02:59:05.452Z,98373.47
2022-07-25T03:01:32.933Z,98374.28
2022-07-25T03:03:59.930Z,98369.13
2022-07-25T03:06:26.966Z,98373.47
2022-07-25T03:08:53.903Z,98376.63
2022-07-25T03:11:21.239Z,98364.00
2022-07-25T03:13:48.093Z,98363.59
2022-07-25T03:16:15.611Z,98369.53
2022-07-25T03:18:42.502Z,98366.38
2022-07-25T03:21:09.462Z,98356.09
2022-07-25T03:23:36.329Z,98359.25
2022-07-25T03:26:03.587Z,98354.91
2022-07-25T03:28:30.505Z,98358.44
2022-07-25T03:30:57.997Z,98357.66
2022-07-25T03:33:24.979Z,98349.34
2022-07-25T03:35:51.813Z,98350.53
2022-07-25T03:38:19.010Z,98344.63
2022-07-25T03:40:46.020Z,98338.31
2022-07-25T03:43:13.201Z,98344.25
2022-07-25T03:45:40.287Z,98340.28
2022-07-25T03:48:07.426Z,98339.09
2022-07-25T03:50:34.739Z,98331.22
2022-07-25T03:53:01.641Z,98327.63
2022-07-25T03:55:28.681Z,98321.34
2022-07-25T03:57:55.579Z,98329.63
2022-07-25T04:00:22.570Z,98329.63
2022-07-25T04:02:49.473Z,98330.03
2022-07-25T04:05:16.470Z,98324.88
2022-07-25T04:07:43.459Z,98324.50
2022-07-25T04:10:11.580Z,98328.84
2022-07-25T04:12:38.995Z,98328.44
2022-07-25T04:15:06.738Z,98321.69
2022-07-25T04:17:33.674Z,98326.41
2022-07-25T04:20:00.532Z,98326.78
2022-07-25T04:22:27.778Z,98322.06
2022-07-25T04:24:54.757Z,98332.34
2022-07-25T04:27:22.182Z,98326.06
2022-07-25T04:29:49.030Z,98324.47
2022-07-25T04:32:20.190Z,98319.75
2022-07-25T04:34:51.440Z,98326.09
2022-07-25T04:37:18.361Z,98327.25
2022-07-25T04:39:45.290Z,98318.94
2022-07-25T04:42:12.105Z,98331.19
2022-07-25T04:44:39.079Z,98319.31
2022-07-25T04:47:06.198Z,98327.53
2022-07-25T04:49:33.111Z,98322.41
2022-07-25T04:52:00.097Z,98317.69
2022-07-25T04:54:27.169Z,98321.28
2022-07-25T04:56:54.008Z,98311.00
2022-07-25T04:59:20.895Z,98314.16
2022-07-25T05:01:47.817Z,98313.00
2022-07-25T05:04:14.814Z,98322.06
2022-07-25T05:06:42.000Z,98322.47
2022-07-25T05:09:08.918Z,98317.34
2022-07-25T05:11:35.930Z,98330.00
2022-07-25T05:14:03.025Z,98329.22
2022-07-25T05:16:30.214Z,98322.91
2022-07-25T05:18:57.075Z,98323.72
2022-07-25T05:21:24.037Z,98318.16
2022-07-25T05:23:51.322Z,98315.81
2022-07-25T05:26:18.265Z,98307.91
2022-07-25T05:28:45.188Z,98307.13
2022-07-25T05:31:12.174Z,98308.28
2022-07-25T05:33:39.177Z,98307.13
2022-07-25T05:36:08.717Z,98310.25
2022-07-25T05:38:35.672Z,98304.75
2022-07-25T05:41:04.318Z,98298.41
2022-07-25T05:43:31.165Z,98305.94
2022-07-25T05:46:06.214Z,98303.16
2022-07-25T05:48:33.216Z,98300.03
2022-07-25T05:51:00.170Z,98296.84
2022-07-25T05:53:27.011Z,98302.41
2022-07-25T05:55:54.649Z,98296.44
2022-07-25T05:58:24.961Z,98290.53
2022-07-25T06:00:55.086Z,98289.72
2022-07-25T06:03:22.075Z,98285.38
2022-07-25T06:05:49.176Z,98280.63
2022-07-25T06:08:16.855Z,98284.94
2022-07-25T06:10:43.670Z,98286.50
2022-07-25T06:13:11.993Z,98283.72
2022-07-25T06:15:39.359Z,98291.97
2022-07-25T06:18:06.296Z,98289.56
2022-07-25T06:20:33.242Z,98289.94
2022-07-25T06:23:00.855Z,98299.03
2022-07-25T06:25:27.724Z,98287.91
2022-07-25T06:27:54.542Z,98291.06
2022-07-25T06:30:21.433Z,98287.84
2022-07-25T06:32:49.767Z,98287.81
2022-07-25T06:35:17.808Z,98281.03
2022-07-25T06:37:44.872Z,98284.94
2022-07-25T06:40:12.676Z,98284.50
2022-07-25T06:42:47.031Z,98277.72
2022-07-25T06:45:15.544Z,98280.44
2022-07-25T06:47:44.419Z,98281.59
2022-07-25T06:50:22.319Z,98278.38
2022-07-25T06:52:49.500Z,98276.31
2022-07-25T06:55:16.770Z,98284.56
2022-07-25T06:57:43.736Z,98282.53
2022-07-25T07:00:14.545Z,98277.28
2022-07-25T07:02:53.424Z,98276.75
2022-07-25T07:05:21.953Z,98279.81
2022-07-25T07:07:52.332Z,98276.56
2022-07-25T07:10:21.845Z,98275.25
2022-07-25T07:12:49.330Z,98271.59
2022-07-25T07:15:17.170Z,98266.75
2022-07-25T07:17:44.026Z,98262.28
2022-07-25T07:20:11.832Z,98273.63
2022-07-25T07:22:49.418Z,98271.06
2022-07-25T07:25:19.670Z,98276.50
2022-07-25T07:27:47.970Z,98266.84
2022-07-25T07:30:16.160Z,98271.34
2022-07-25T07:32:45.705Z,98259.19
2022-07-25T07:35:16.521Z,98263.78
2022-07-25T07:37:44.332Z,98267.50
2022-07-25T07:40:17.202Z,98268.81
2022-07-25T07:42:48.562Z,98270.94
2022-07-25T07:45:24.376Z,98267.09
2022-07-25T07:47:53.925Z,98264.84
2022-07-25T07:50:27.166Z,98261.00
2022-07-25T07:52:56.223Z,98264.28
2022-07-25T07:55:42.079Z,98266.78
2022-07-25T07:58:10.064Z,98267.97
2022-07-25T08:00:39.365Z,98261.91
2022-07-25T08:03:08.792Z,98256.59
2022-07-25T08:05:44.369Z,98256.56
2022-07-25T08:08:13.872Z,98256.59
2022-07-25T08:10:45.411Z,98264.53
2022-07-25T08:13:23.607Z,98251.66
2022-07-25T08:15:56.018Z,98262.63
2022-07-25T08:18:22.796Z,98263.66
2022-07-25T08:20:51.089Z,98271.53
2022-07-25T08:23:19.590Z,98265.53
2022-07-25T08:25:48.218Z,98268.78
2022-07-25T08:28:15.343Z,98276.41
2022-07-25T08:30:43.163Z,98265.34
2022-07-25T08:33:13.759Z,98269.25
2022-07-25T08:35:48.983Z,98265.22
2022-07-25T08:38:16.046Z,98274.38
2022-07-25T08:40:42.924Z,98280.84
2022-07-25T08:43:15.075Z,98267.56
2022-07-25T08:45:54.951Z,98263.97
2022-07-25T08:48:26.588Z,98274.22
2022-07-25T08:50:57.737Z,98277.66
2022-07-25T08:53:34.626Z,98269.59
2022-07-25T08:56:12.239Z,98274.94
2022-07-25T08:58:44.034Z,98276.91
2022-07-25T09:01:13.289Z,98274.00
2022-07-25T09:03:42.506Z,98279.22
2022-07-25T09:06:17.635Z,98278.19
2022-07-25T09:08:56.943Z,98270.13
2022-07-25T09:11:32.731Z,98264.03
2022-07-25T09:14:10.814Z,98265.47
2022-07-25T09:16:46.000Z,98267.66
2022-07-25T09:19:17.162Z,98265.97
2022-07-25T09:21:59.673Z,98270.78
2022-07-25T09:24:27.080Z,98264.84
2022-07-25T09:26:58.084Z,98263.78
2022-07-25T09:29:32.337Z,98260.66
2022-07-25T09:32:01.687Z,98262.97
2022-07-25T09:34:40.493Z,98254.97
2022-07-25T09:37:13.639Z,98265.28
2022-07-25T09:39:49.489Z,98257.09
2022-07-25T09:42:23.609Z,98255.81
2022-07-25T09:45:03.334Z,98249.88
2022-07-25T09:47:33.014Z,98254.97
2022-07-25T09:50:00.786Z,98260.09
2022-07-25T09:52:27.910Z,98249.75
2022-07-25T09:54:54.941Z,98247.94
2022-07-25T09:57:24.112Z,98244.91
2022-07-25T09:59:51.111Z,98244.50
2022-07-25T10:02:48.424Z,98245.47
2022-07-25T10:05:56.610Z,98237.34
2022-07-25T10:08:26.583Z,98225.66
2022-07-25T10:10:53.598Z,98220.13
2022-07-25T10:13:34.606Z,98217.81
2022-07-25T10:16:02.536Z,98221.91
2022-07-25T10:18:31.496Z,98225.66
2022-07-25T10:21:25.458Z,98211.94
2022-07-25T10:24:05.268Z,98202.44
2022-07-25T10:26:36.205Z,98211.38
2022-07-25T10:29:10.549Z,98216.47
2022-07-25T10:31:50.314Z,98205.13
2022-07-25T10:34:33.249Z,98197.25
2022-07-25T10:37:21.215Z,98196.22
2022-07-25T10:39:48.687Z,98197.94
2022-07-25T10:42:21.256Z,98189.59
2022-07-25T10:44:54.356Z,98189.91
2022-07-25T10:47:26.106Z,98180.53
2022-07-25T10:50:16.836Z,98181.38
2022-07-25T10:53:00.606Z,98185.22
2022-07-25T10:55:29.286Z,98195.09
2022-07-25T10:58:21.596Z,98188.41
2022-07-25T11:00:48.550Z,98191.56
2022-07-25T11:03:18.390Z,98190.34
2022-07-25T11:05:51.603Z,98191.03
2022-07-25T11:08:21.995Z,98190.06
2022-07-25T11:10:53.190Z,98186.28
2022-07-25T11:13:20.480Z,98184.81
2022-07-25T11:15:48.534Z,98185.50
2022-07-25T11:18:18.324Z,98185.97
2022-07-25T11:20:45.149Z,98178.78
2022-07-25T11:23:12.037Z,98180.16
2022-07-25T11:25:42.539Z,98169.22
2022-07-25T11:28:09.660Z,98182.25
2022-07-25T11:30:36.701Z,98183.38
2022-07-25T11:33:04.979Z,98172.53
2022-07-25T11:35:33.669Z,98180.22
2022-07-25T11:38:02.876Z,98174.50
2022-07-25T11:40:32.576Z,98184.66
2022-07-25T11:43:00.023Z,98175.53
2022-07-25T11:45:33.880Z,98183.56
2022-07-25T11:48:12.178Z,98181.25
2022-07-25T11:50:45.207Z,98171.53
2022-07-25T11:53:16.154Z,98174.41
2022-07-25T11:55:44.184Z,98162.56
2022-07-25T11:58:14.055Z,98174.75
2022-07-25T12:00:47.261Z,98177.22
2022-07-25T12:03:20.174Z,98160.88
2022-07-25T12:05:49.368Z,98183.81
2022-07-25T12:08:23.086Z,98169.47
2022-07-25T12:10:51.390Z,98173.72
2022-07-25T12:13:28.588Z,98170.28
2022-07-25T12:16:00.125Z,98173.91
2022-07-25T12:18:27.491Z,98169.88
2022-07-25T12:20:54.460Z,98167.19
2022-07-25T12:23:22.228Z,98164.91
2022-07-25T12:25:49.380Z,98162.66
2022-07-25T12:28:16.710Z,98157.13
2022-07-25T12:30:46.013Z,98164.41
2022-07-25T12:33:13.328Z,98157.56
2022-07-25T12:35:42.637Z,98154.50
2022-07-25T12:38:11.086Z,98146.38
2022-07-25T12:40:38.817Z,98149.56
2022-07-25T12:43:05.843Z,98148.63
2022-07-25T12:45:33.184Z,98152.88
2022-07-25T12:48:00.157Z,98135.75
2022-07-25T12:50:27.199Z,98139.81
2022-07-25T12:52:55.003Z,98133.25
2022-07-25T12:55:22.489Z,98127.44
2022-07-25T12:57:50.456Z,98137.63
2022-07-25T13:00:21.555Z,98126.66
2022-07-25T13:02:51.798Z,98127.06
2022-07-25T13:05:20.225Z,98124.53
2022-07-25T13:07:49.172Z,98125.31
2022-07-25T13:10:17.465Z,98111.91
2022-07-25T13:12:44.711Z,98104.56
2022-07-25T13:15:12.095Z,98119.84
2022-07-25T13:17:40.530Z,98123.09
2022-07-25T13:20:09.203Z,98128.53
2022-07-25T13:22:37.368Z,98129.97
2022-07-25T13:25:05.197Z,98124.69
2022-07-25T13:27:32.117Z,98131.13
2022-07-25T13:29:59.423Z,98135.13
2022-07-25T13:32:28.655Z,98134.31
2022-07-25T13:34:55.719Z,98145.34
2022-07-25T13:37:23.086Z,98144.94
2022-07-25T13:39:50.245Z,98143.00
2022-07-25T13:42:17.292Z,98143.94
2022-07-25T13:44:44.295Z,98141.81
2022-07-25T13:47:11.691Z,98142.22
2022-07-25T13:49:39.115Z,98131.16
2022-07-25T13:52:06.668Z,98134.69
2022-07-25T13:54:33.730Z,98124.88
2022-07-25T13:57:02.713Z,98122.78
2022-07-25T13:59:30.180Z,98126.06
2022-07-25T14:01:57.610Z,98121.50
2022-07-25T14:04:28.135Z,98121.13
2022-07-25T14:06:56.262Z,98114.19
2022-07-25T14:09:23.910Z,98121.53
2022-07-25T14:11:50.838Z,98109.84
2022-07-25T14:14:17.927Z,98108.38
2022-07-25T14:16:45.520Z,98095.31
2022-07-25T14:19:12.911Z,98100.25
2022-07-25T14:21:39.856Z,98101.31
2022-07-25T14:24:07.444Z,98096.91
2022-07-25T14:26:35.301Z,98091.63
2022-07-25T14:29:02.701Z,98098.19
2022-07-25T14:31:30.021Z,98097.88
2022-07-25T14:33:56.948Z,98112.75
2022-07-25T14:36:23.894Z,98125.03
2022-07-25T14:38:51.155Z,98132.59
2022-07-25T14:41:19.706Z,98157.09
2022-07-25T14:43:46.783Z,98172.03
2022-07-25T14:46:14.652Z,98168.88
2022-07-25T14:48:41.987Z,98178.38
2022-07-25T14:51:09.138Z,98186.16
2022-07-25T14:53:36.197Z,98191.88
2022-07-25T14:56:05.772Z,98192.50
2022-07-25T14:58:36.134Z,98197.34
2022-07-25T15:01:03.269Z,98185.41
2022-07-25T15:03:30.235Z,98185.38
2022-07-25T15:05:57.901Z,98173.81
2022-07-25T15:08:24.964Z,98165.81
2022-07-25T15:11:00.821Z,98162.31
2022-07-25T15:13:31.554Z,98162.31
2022-07-25T15:15:59.597Z,98151.34
2022-07-25T15:18:26.647Z,98167.88
2022-07-25T15:20:55.147Z,98156.25
2022-07-25T15:23:24.715Z,98151.13
2022-07-25T15:26:03.472Z,98148.63
2022-07-25T15:28:33.596Z,98140.97
2022-07-25T15:31:01.101Z,98150.59
2022-07-25T15:33:28.578Z,98151.72
2022-07-25T15:35:55.923Z,98139.97
2022-07-25T15:38:23.204Z,98145.53
2022-07-25T15:40:50.353Z,98150.69
2022-07-25T15:43:17.416Z,98139.13
2022-07-25T15:45:46.550Z,98141.66
2022-07-25T15:48:16.311Z,98141.16
2022-07-25T15:50:51.342Z,98139.78
2022-07-25T15:53:18.630Z,98137.28
2022-07-25T15:55:45.519Z,98138.81
2022-07-25T15:58:12.809Z,98141.44
2022-07-25T16:00:40.860Z,98128.38
2022-07-25T16:03:08.919Z,98135.75
2022-07-25T16:05:38.154Z,98132.00
2022-07-25T16:08:08.280Z,98143.19
2022-07-25T16:10:38.163Z,98129.00
2022-07-25T16:13:05.244Z,98127.63
2022-07-25T16:15:32.213Z,98124.97
2022-07-25T16:18:02.635Z,98135.75
2022-07-25T16:20:31.950Z,98130.75
2022-07-25T16:23:00.682Z,98118.63
2022-07-25T16:25:29.618Z,98120.97
2022-07-25T16:28:32.007Z,98124.69
2022-07-25T16:30:58.886Z,98128.91
2022-07-25T16:33:26.013Z,98134.50
2022-07-25T16:35:52.861Z,98135.44
2022-07-25T16:38:19.979Z,98126.88
2022-07-25T16:40:46.794Z,98135.88
2022-07-25T16:43:13.747Z,98140.09
2022-07-25T16:45:42.226Z,98144.91
2022-07-25T16:48:09.351Z,98138.47
2022-07-25T16:51:01.437Z,98136.13
2022-07-25T16:53:28.357Z,98137.22
2022-07-25T16:55:55.571Z,98128.44
2022-07-25T16:58:22.474Z,98140.59
2022-07-25T17:00:49.499Z,98137.16
2022-07-25T17:03:16.741Z,98141.53
2022-07-25T17:05:43.794Z,98140.84
2022-07-25T17:08:10.757Z,98141.09
2022-07-25T17:10:37.593Z,98148.69
2022-07-25T17:13:04.645Z,98156.88
2022-07-25T17:15:31.504Z,98162.66
2022-07-25T17:17:59.366Z,98163.72
2022-07-25T17:20:26.478Z,98166.31
2022-07-25T17:22:53.351Z,98170.94
2022-07-25T17:25:20.270Z,98177.25
2022-07-25T17:27:47.213Z,98173.38
2022-07-25T17:30:14.197Z,98179.22
2022-07-25T17:32:41.276Z,98181.00
2022-07-25T17:35:08.899Z,98190.44
2022-07-25T17:37:36.139Z,98203.25
2022-07-25T17:40:04.057Z,98191.06
2022-07-25T17:42:31.626Z,98196.47
2022-07-25T17:44:58.444Z,98197.38
2022-07-25T17:47:25.711Z,98207.34
2022-07-25T17:49:52.667Z,98220.34
2022-07-25T17:52:19.663Z,98216.66
2022-07-25T17:54:46.558Z,98226.50
2022-07-25T17:57:13.643Z,98241.28
2022-07-25T17:59:40.657Z,98244.31
2022-07-25T18:02:07.998Z,98244.75
2022-07-25T18:04:36.413Z,98248.53
2022-07-25T18:07:04.681Z,98245.63
2022-07-25T18:09:31.903Z,98250.19
2022-07-25T18:12:01.924Z,98251.63
2022-07-25T18:14:29.452Z,98268.69
2022-07-25T18:16:57.365Z,98263.31
2022-07-25T18:19:25.219Z,98264.13
2022-07-25T18:21:53.242Z,98265.44
2022-07-25T18:24:20.104Z,98273.94
2022-07-25T18:26:47.080Z,98270.88
2022-07-25T18:29:13.975Z,98277.31
2022-07-25T18:31:40.931Z,98269.38
2022-07-25T18:34:08.300Z,98280.72
2022-07-25T18:36:35.492Z,98290.09
2022-07-25T18:39:02.629Z,98282.78
2022-07-25T18:41:30.435Z,98285.56
2022-07-25T18:43:57.861Z,98291.56
2022-07-25T18:46:25.284Z,98286.34
2022-07-25T18:48:53.125Z,98299.16
2022-07-25T18:51:21.209Z,98303.69
2022-07-25T18:53:48.989Z,98308.59
2022-07-25T18:56:16.891Z,98306.44
2022-07-25T18:58:44.353Z,98306.50
2022-07-25T19:01:12.503Z,98306.69
2022-07-25T19:03:40.598Z,98312.25
2022-07-25T19:06:11.250Z,98315.56
2022-07-25T19:08:38.707Z,98320.44
2022-07-25T19:11:05.792Z,98320.44
2022-07-25T19:13:51.204Z,98326.47
2022-07-25T19:16:19.322Z,98329.78
2022-07-25T19:18:46.739Z,98335.41
2022-07-25T19:21:13.878Z,98339.53
2022-07-25T19:23:40.797Z,98337.66
2022-07-25T19:26:08.129Z,98344.34
2022-07-25T19:28:38.160Z,98351.06
2022-07-25T19:31:05.321Z,98351.94
2022-07-25T19:33:35.854Z,98357.66
2022-07-25T19:36:04.483Z,98358.94
2022-07-25T19:38:31.813Z,98359.75
2022-07-25T19:40:59.334Z,98375.78
2022-07-25T19:43:26.498Z,98364.03
2022-07-25T19:45:53.849Z,98372.91
2022-07-25T19:48:23.728Z,98376.19
2022-07-25T19:50:52.254Z,98376.31
2022-07-25T19:53:19.607Z,98375.03
2022-07-25T19:55:46.542Z,98383.88
2022-07-25T19:58:13.459Z,98380.88
2022-07-25T20:00:41.046Z,98384.47
2022-07-25T20:03:08.046Z,98389.97
2022-07-25T20:05:35.284Z,98387.25
2022-07-25T20:08:02.233Z,98400.38
2022-07-25T20:10:29.478Z,98406.00
2022-07-25T20:13:00.967Z,98404.53
2022-07-25T20:15:28.838Z,98411.53
2022-07-25T20:17:56.858Z,98410.81
2022-07-25T20:20:24.910Z,98424.03
2022-07-25T20:22:53.290Z,98420.66
2022-07-25T20:25:20.238Z,98421.63
2022-07-25T20:27:49.572Z,98420.38
2022-07-25T20:30:17.411Z,98426.53
2022-07-25T20:32:44.424Z,98433.97
2022-07-25T20:35:11.541Z,98433.22
2022-07-25T20:37:38.602Z,98438.72
2022-07-25T20:40:06.974Z,98440.56
2022-07-25T20:42:36.740Z,98440.94
2022-07-25T20:45:06.235Z,98450.47
2022-07-25T20:47:34.035Z,98441.28
2022-07-25T20:50:01.462Z,98453.53
2022-07-25T20:52:30.091Z,98462.66
2022-07-25T20:54:57.014Z,98465.06
2022-07-25T20:57:24.500Z,98461.53
2022-07-25T20:59:51.471Z,98472.47
2022-07-25T21:02:18.488Z,98472.91
2022-07-25T21:04:48.295Z,98475.34
2022-07-25T21:07:16.796Z,98479.84
2022-07-25T21:09:44.925Z,98478.41
2022-07-25T21:12:11.828Z,98474.16
2022-07-25T21:14:38.671Z,98480.97
2022-07-25T21:17:05.602Z,98481.28
2022-07-25T21:19:32.769Z,98481.63
2022-07-25T21:21:59.747Z,98484.44
2022-07-25T21:24:26.746Z,98485.25
2022-07-25T21:26:53.561Z,98490.91
2022-07-25T21:29:20.429Z,98489.78
2022-07-25T21:31:47.886Z,98480.69
2022-07-25T21:34:15.797Z,98492.47
2022-07-25T21:36:42.609Z,98493.66
2022-07-25T21:39:09.936Z,98493.22
2022-07-25T21:41:37.440Z,98494.34
2022-07-25T21:44:04.510Z,98496.00
2022-07-25T21:46:31.704Z,98494.44
2022-07-25T21:49:17.021Z,98501.94
2022-07-25T21:51:57.050Z,98495.97
2022-07-25T21:54:24.978Z,98497.66
2022-07-25T21:56:52.550Z,98507.69
2022-07-25T21:59:19.473Z,98514.41
2022-07-25T22:01:46.385Z,98506.88
2022-07-25T22:04:13.301Z,98501.31
2022-07-25T22:06:40.396Z,98504.09
2022-07-25T22:09:07.765Z,98504.50
2022-07-25T22:11:45.932Z,98504.09
2022-07-25T22:14:14.277Z,98511.63
2022-07-25T22:16:42.736Z,98511.25
2022-07-25T22:19:10.044Z,98513.25
2022-07-25T22:21:37.253Z,98512.50
2022-07-25T22:24:04.576Z,98512.56
2022-07-25T22:26:31.883Z,98520.59
2022-07-25T22:28:59.021Z,98519.78
2022-07-25T22:31:26.093Z,98507.09
2022-07-25T22:33:53.159Z,98502.34
2022-07-25T22:36:20.381Z,98501.66
2022-07-25T22:38:50.685Z,98503.25
2022-07-25T22:41:17.808Z,98503.28
2022-07-25T22:43:57.257Z,98517.94
2022-07-25T22:46:28.741Z,98510.00
2022-07-25T22:48:56.422Z,98511.97
2022-07-25T22:51:24.230Z,98509.16
2022-07-25T22:53:51.565Z,98522.63
2022-07-25T22:56:19.271Z,98538.66
2022-07-25T22:58:49.074Z,98537.50
2022-07-25T23:01:17.944Z,98533.16
2022-07-25T23:03:45.618Z,98537.47
2022-07-25T23:06:13.221Z,98533.44
2022-07-25T23:08:40.104Z,98546.47
2022-07-25T23:11:07.181Z,98539.78
2022-07-25T23:13:35.335Z,98553.66
2022-07-25T23:16:03.839Z,98551.31
2022-07-25T23:18:32.154Z,98548.56
2022-07-25T23:20:59.930Z,98538.97
2022-07-25T23:23:27.315Z,98536.63
2022-07-25T23:25:54.201Z,98540.22
2022-07-25T23:28:21.180Z,98545.41
2022-07-25T23:30:48.086Z,98538.22
2022-07-25T23:33:17.480Z,98543.75
2022-07-25T23:35:48.897Z,98549.31
2022-07-25T23:38:15.824Z,98551.66
2022-07-25T23:40:42.753Z,98550.53
2022-07-25T23:43:09.593Z,98553.34
2022-07-25T23:45:39.402Z,98566.13
2022-07-25T23:48:07.635Z,98571.25
2022-07-25T23:50:34.488Z,98576.00
2022-07-25T23:53:01.400Z,98574.03
2022-07-25T23:55:28.452Z,98580.75
2022-07-25T23:57:55.326Z,98579.53
